Time;durP1;ratioP1;P1;durP2;ratioP2;P2;SDS_P1;SDS_P2;PMS_P1;PMS_P2;Temp;Humidity;BMP_temperature;BMP_pressure;BME280_temperature;BME280_humidity;BME280_pressure;Samples;Min_cycle;Max_cycle;Signal;HPM_P1;HPM_P2
2021/12/29 00:01:35;;;;;;;10.87;2.13;;;;;;;8.18;87.55;97637.75;5051031;28;20234;-58
2021/12/29 00:04:02;;;;;;;7.10;1.67;;;;;;;8.15;89.21;97645.88;5051599;28;20207;-59
2021/12/29 00:06:29;;;;;;;9.50;2.33;;;;;;;8.09;88.93;97624.75;5051588;28;20183;-59
2021/12/29 00:08:56;;;;;;;12.90;1.77;;;;;;;7.97;90.89;97632.00;5051870;28;20179;-59
2021/12/29 00:11:24;;;;;;;9.77;1.70;;;;;;;8.05;89.42;97643.41;5050811;28;20241;-59
2021/12/29 00:13:51;;;;;;;11.03;1.63;;;;;;;8.03;90.27;97638.38;5052071;28;20207;-54
2021/12/29 00:16:17;;;;;;;14.77;2.67;;;;;;;7.97;92.50;97642.41;5051641;28;20202;-59
2021/12/29 00:18:45;;;;;;;7.97;1.33;;;;;;;7.95;91.70;97646.16;5051488;28;20180;-57
2021/12/29 00:21:14;;;;;;;10.97;1.53;;;;;;;8.01;90.77;97650.72;5050793;28;20573;-58
2021/12/29 00:23:41;;;;;;;10.43;1.63;;;;;;;7.98;91.73;97651.03;5051232;28;20230;-57
2021/12/29 00:26:11;;;;;;;6.20;1.50;;;;;;;7.87;93.10;97657.34;5051474;28;20191;-59
2021/12/29 00:28:39;;;;;;;11.53;1.57;;;;;;;7.89;91.14;97646.78;5051390;28;20241;-57
2021/12/29 00:31:06;;;;;;;12.97;1.67;;;;;;;7.88;92.67;97651.19;5049428;28;20225;-59
2021/12/29 00:33:56;;;;;;;10.03;1.60;;;;;;;7.81;93.96;97663.16;5051374;28;20199;-58
2021/12/29 00:36:55;;;;;;;9.83;1.53;;;;;;;7.79;93.02;97663.31;5039276;28;20191;-60
2021/12/29 00:39:41;;;;;;;11.27;1.60;;;;;;;7.81;93.38;97669.16;5050839;28;20195;-57
2021/12/29 00:42:26;;;;;;;9.37;1.50;;;;;;;7.83;94.70;97675.03;5051347;28;20222;-59
2021/12/29 00:45:14;;;;;;;10.43;1.23;;;;;;;7.86;94.32;97673.06;5051284;28;20217;-56
2021/12/29 00:47:41;;;;;;;12.23;2.00;;;;;;;7.91;93.60;97684.66;5051283;28;20183;-59
2021/12/29 00:50:15;;;;;;;8.33;1.70;;;;;;;7.98;91.27;97687.41;5050465;28;20194;-57
2021/12/29 00:52:42;;;;;;;8.63;1.20;;;;;;;8.06;88.94;97686.63;5050023;28;20194;-57
2021/12/29 00:55:09;;;;;;;8.10;1.63;;;;;;;8.05;90.52;97695.38;5051167;28;20187;-57
2021/12/29 00:57:36;;;;;;;11.40;1.30;;;;;;;8.01;93.44;97707.88;5051192;28;20191;-59
2021/12/29 01:00:05;;;;;;;7.87;1.33;;;;;;;7.95;93.36;97730.09;5050586;28;20620;-59
2021/12/29 01:02:33;;;;;;;7.50;1.40;;;;;;;7.89;94.93;97720.38;5053884;28;20199;-56
2021/12/29 01:05:00;;;;;;;6.63;1.20;;;;;;;7.95;93.23;97727.50;5054724;28;20211;-57
2021/12/29 01:07:27;;;;;;;10.07;1.57;;;;;;;7.92;93.82;97727.84;5054856;28;20553;-57
2021/12/29 01:09:53;;;;;;;13.33;1.93;;;;;;;8.04;91.02;97719.75;5054130;28;20192;-55
2021/12/29 01:12:20;;;;;;;10.47;1.80;;;;;;;8.03;92.15;97731.09;5053449;28;20216;-57
2021/12/29 01:14:53;;;;;;;5.93;1.33;;;;;;;8.06;92.27;97744.63;5054674;28;20187;-56
2021/12/29 01:17:23;;;;;;;11.27;1.70;;;;;;;7.99;91.90;97751.41;5054577;28;20187;-59
2021/12/29 01:19:53;;;;;;;16.83;1.47;;;;;;;7.89;95.35;97772.34;5053971;28;20184;-58
2021/12/29 01:22:21;;;;;;;7.50;1.30;;;;;;;7.80;95.12;97774.06;5054608;28;20217;-54
2021/12/29 01:24:48;;;;;;;6.40;1.30;;;;;;;7.74;97.20;97781.66;5054484;28;20214;-57
2021/12/29 01:27:15;;;;;;;9.83;1.67;;;;;;;7.73;96.55;97757.44;5054378;28;20199;-56
2021/12/29 01:29:42;;;;;;;10.03;1.40;;;;;;;7.66;98.37;97740.84;5053814;28;20241;-57
2021/12/29 01:32:09;;;;;;;9.10;1.50;;;;;;;7.64;96.90;97751.41;5054353;28;20204;-56
2021/12/29 01:34:35;;;;;;;15.23;1.70;;;;;;;7.72;96.29;97747.22;5054347;28;20196;-55
2021/12/29 01:37:04;;;;;;;10.47;1.90;;;;;;;7.78;95.48;97765.59;5054287;28;20661;-55
2021/12/29 01:39:31;;;;;;;7.07;1.27;;;;;;;7.71;97.88;97772.38;5054160;28;20187;-61
2021/12/29 01:41:59;;;;;;;13.97;1.37;;;;;;;7.63;98.85;97770.56;5053810;28;20204;-54
2021/12/29 01:44:28;;;;;;;11.97;1.17;;;;;;;7.63;98.58;97773.16;5053941;28;20205;-56
2021/12/29 01:46:57;;;;;;;11.63;1.10;;;;;;;7.56;99.21;97785.13;5054052;28;20187;-52
2021/12/29 01:49:24;;;;;;;8.37;1.40;;;;;;;7.52;100.00;97791.59;5054025;28;20268;-56
2021/12/29 01:52:02;;;;;;;17.77;1.77;;;;;;;7.57;100.00;97798.91;5053301;28;20239;-56
2021/12/29 01:54:34;;;;;;;11.30;1.40;;;;;;;7.49;100.00;97808.25;5054022;28;20180;-53
2021/12/29 01:57:06;;;;;;;6.40;1.50;;;;;;;7.58;99.99;97816.13;5053933;28;20183;-56
2021/12/29 01:59:35;;;;;;;11.50;1.53;;;;;;;7.63;98.64;97819.91;5053519;28;20194;-56
2021/12/29 02:02:02;;;;;;;6.13;0.97;;;;;;;7.60;99.47;97825.41;5053661;28;20203;-55
2021/12/29 02:04:29;;;;;;;9.53;1.67;;;;;;;7.56;100.00;97841.44;5053769;28;20211;-57
2021/12/29 02:06:56;;;;;;;7.93;1.30;;;;;;;7.52;100.00;97846.91;5053793;28;20198;-55
2021/12/29 02:09:23;;;;;;;9.10;1.53;;;;;;;7.53;100.00;97847.75;5053627;28;20191;-56
2021/12/29 02:11:52;;;;;;;13.07;1.07;;;;;;;7.60;100.00;97850.53;5052559;28;20207;-56
2021/12/29 02:14:19;;;;;;;7.60;1.57;;;;;;;7.60;100.00;97853.16;5053578;28;20183;-56
2021/12/29 02:16:46;;;;;;;8.57;1.43;;;;;;;7.65;99.82;97846.53;5053557;28;20568;-54
2021/12/29 02:19:14;;;;;;;9.33;1.20;;;;;;;7.71;99.41;97847.72;5053432;28;20192;-57
2021/12/29 02:21:51;;;;;;;8.87;1.33;;;;;;;7.62;100.00;97848.63;5052787;28;20298;-55
2021/12/29 02:24:20;;;;;;;7.67;1.10;;;;;;;7.60;100.00;97847.94;5053514;28;20218;-56
2021/12/29 02:26:48;;;;;;;11.70;1.50;;;;;;;7.51;100.00;97847.88;5053269;28;20190;-56
2021/12/29 02:29:18;;;;;;;8.13;1.13;;;;;;;7.54;100.00;97862.38;5053364;28;20688;-55
2021/12/29 02:31:47;;;;;;;9.70;1.40;;;;;;;7.52;100.00;97856.50;5052595;28;20233;-54
2021/12/29 02:34:15;;;;;;;12.83;1.80;;;;;;;7.48;100.00;97871.56;5053114;28;20176;-56
2021/12/29 02:36:45;;;;;;;7.50;1.43;;;;;;;7.52;100.00;97878.09;5053334;28;20191;-56
2021/12/29 02:39:15;;;;;;;9.23;1.63;;;;;;;7.46;100.00;97873.50;5053250;28;20207;-54
2021/12/29 02:41:45;;;;;;;12.45;1.80;;;;;;;7.45;100.00;97887.44;5052063;28;20424;-56
2021/12/29 02:44:17;;;;;;;6.77;1.53;;;;;;;7.47;100.00;97871.72;5053054;28;20284;-53
2021/12/29 02:46:47;;;;;;;10.90;1.47;;;;;;;7.49;100.00;97885.38;5052982;28;20274;-56
2021/12/29 02:49:14;;;;;;;6.47;1.03;;;;;;;7.43;100.00;97885.97;5052945;28;20183;-54
2021/12/29 02:51:41;;;;;;;12.10;1.43;;;;;;;7.45;100.00;97878.84;5052406;28;20276;-55
2021/12/29 02:54:09;;;;;;;8.40;1.30;;;;;;;7.42;100.00;97895.53;5052970;28;20184;-57
2021/12/29 02:56:36;;;;;;;4.77;1.07;;;;;;;7.43;100.00;97898.94;5052769;28;20195;-55
2021/12/29 02:59:03;;;;;;;8.50;1.43;;;;;;;7.42;100.00;97892.91;5052734;28;20187;-56
2021/12/29 03:01:31;;;;;;;8.03;1.73;;;;;;;7.43;100.00;97899.75;5051904;28;20210;-56
2021/12/29 03:04:00;;;;;;;9.73;1.77;;;;;;;7.44;100.00;97909.16;5052554;28;20669;-58
2021/12/29 03:06:27;;;;;;;7.37;1.20;;;;;;;7.46;100.00;97899.44;5052613;28;20273;-53
2021/12/29 03:08:54;;;;;;;13.40;1.90;;;;;;;7.50;100.00;97898.19;5052579;28;20191;-56
2021/12/29 03:11:23;;;;;;;9.83;1.10;;;;;;;7.50;100.00;97897.38;5051757;28;20226;-55
2021/12/29 03:13:50;;;;;;;6.97;1.10;;;;;;;7.51;100.00;97888.63;5052376;28;20191;-54
2021/12/29 03:16:17;;;;;;;14.20;1.57;;;;;;;7.53;100.00;97903.09;5052363;28;20259;-55
2021/12/29 03:18:44;;;;;;;11.40;1.53;;;;;;;7.59;100.00;97901.69;5052429;28;20187;-57
2021/12/29 03:21:11;;;;;;;6.87;1.07;;;;;;;7.56;100.00;97909.78;5051587;28;20210;-55
2021/12/29 03:23:39;;;;;;;11.97;1.50;;;;;;;7.52;100.00;97904.06;5051690;28;20195;-57
2021/12/29 03:26:07;;;;;;;8.63;1.30;;;;;;;7.56;100.00;97899.41;5052106;28;20215;-56
2021/12/29 03:28:37;;;;;;;9.83;1.40;;;;;;;7.53;100.00;97904.88;5052164;28;20657;-55
2021/12/29 03:31:05;;;;;;;11.73;1.20;;;;;;;7.50;100.00;97907.78;5051609;28;20677;-53
2021/12/29 03:33:33;;;;;;;4.07;0.83;;;;;;;7.53;100.00;97895.28;5052176;28;20185;-54
2021/12/29 03:36:02;;;;;;;8.67;1.20;;;;;;;7.56;100.00;97906.34;5052154;28;20182;-52
2021/12/29 03:38:31;;;;;;;9.80;1.23;;;;;;;7.53;100.00;97894.50;5052108;28;20218;-55
2021/12/29 03:40:59;;;;;;;9.50;1.10;;;;;;;7.56;100.00;97907.19;5051195;28;20203;-52
2021/12/29 03:43:27;;;;;;;8.80;1.20;;;;;;;7.51;100.00;97896.44;5052008;28;20187;-54
2021/12/29 03:45:56;;;;;;;9.87;1.20;;;;;;;7.54;100.00;97891.72;5051989;28;20227;-56
2021/12/29 03:48:26;;;;;;;8.47;0.87;;;;;;;7.54;100.00;97889.13;5051918;28;20182;-53
2021/12/29 03:50:54;;;;;;;7.77;1.30;;;;;;;7.57;100.00;97889.81;5051258;28;20208;-56
2021/12/29 03:53:21;;;;;;;5.93;1.30;;;;;;;7.64;100.00;97898.63;5051719;28;20230;-56
2021/12/29 03:55:50;;;;;;;7.83;1.30;;;;;;;7.63;100.00;97909.97;5051933;28;20183;-54
2021/12/29 03:58:17;;;;;;;7.40;1.50;;;;;;;7.73;98.99;97907.31;5051934;28;20238;-56
2021/12/29 04:00:44;;;;;;;6.20;0.97;;;;;;;7.77;98.95;97906.84;5051049;28;20554;-52
2021/12/29 04:03:13;;;;;;;12.67;1.47;;;;;;;7.77;99.80;97906.06;5051823;28;20187;-52
2021/12/29 04:05:40;;;;;;;5.07;1.80;;;;;;;7.74;99.59;97919.34;5051625;28;20615;-56
2021/12/29 04:08:07;;;;;;;5.93;1.20;;;;;;;7.79;96.04;97907.53;5051536;28;20685;-53
2021/12/29 04:10:34;;;;;;;7.50;0.90;;;;;;;7.84;97.67;97909.69;5050880;28;20233;-57
2021/12/29 04:13:02;;;;;;;7.40;1.40;;;;;;;7.79;99.33;97912.72;5051645;28;20191;-56
2021/12/29 04:15:29;;;;;;;9.13;1.17;;;;;;;7.88;96.12;97918.81;5051605;28;20187;-52
2021/12/29 04:17:58;;;;;;;7.43;1.07;;;;;;;7.87;96.56;97909.38;5051662;28;20274;-55
2021/12/29 04:23:15;;;;;;;5.73;1.00;;;;;;;7.83;96.54;97929.63;5051570;28;20183;-53
2021/12/29 04:25:46;;;;;;;12.67;1.20;;;;;;;7.87;95.94;97914.59;5051507;28;20218;-52
2021/12/29 04:28:16;;;;;;;8.50;1.60;;;;;;;7.85;98.50;97928.69;5051600;28;20195;-53
2021/12/29 04:30:46;;;;;;;5.97;0.80;;;;;;;7.84;97.43;97920.06;5050942;28;20210;-55
2021/12/29 04:33:13;;;;;;;8.80;1.13;;;;;;;7.77;99.13;97932.84;5051434;28;20570;-55
2021/12/29 04:35:41;;;;;;;5.83;0.87;;;;;;;7.71;100.00;97940.44;5053025;28;20186;-58
2021/12/29 04:38:08;;;;;;;12.10;1.33;;;;;;;7.64;100.00;97942.78;5055371;28;20179;-57
2021/12/29 04:40:35;;;;;;;7.67;1.30;;;;;;;7.61;100.00;97936.13;5054828;28;20207;-55
2021/12/29 04:43:02;;;;;;;6.15;1.40;;;;;;;7.63;100.00;97939.38;5054503;28;20444;-53
2021/12/29 04:45:28;;;;;;;6.53;1.47;;;;;;;7.58;100.00;97940.78;5055150;28;20207;-54
2021/12/29 04:47:55;;;;;;;5.47;1.27;;;;;;;7.58;100.00;97935.59;5055278;28;20219;-55
2021/12/29 04:50:28;;;;;;;9.87;1.20;;;;;;;7.61;100.00;97937.88;5054480;28;20188;-58
2021/12/29 04:52:59;;;;;;;7.13;0.90;;;;;;;7.61;100.00;97943.09;5055257;28;20734;-55
2021/12/29 04:55:27;;;;;;;7.23;1.60;;;;;;;7.61;100.00;97937.88;5055209;28;20183;-56
2021/12/29 04:57:55;;;;;;;8.83;1.43;;;;;;;7.61;100.00;97940.50;5055093;28;20558;-56
2021/12/29 05:00:24;;;;;;;3.87;0.97;;;;;;;7.60;100.00;97965.66;5054282;28;20600;-56
2021/12/29 05:02:52;;;;;;;6.47;1.47;;;;;;;7.58;100.00;97962.38;5055276;28;20188;-55
2021/12/29 05:05:23;;;;;;;5.23;0.70;;;;;;;7.62;100.00;97962.91;5054849;28;20688;-55
2021/12/29 05:10:41;;;;;;;7.20;0.93;;;;;;;7.59;100.00;97990.00;5038420;28;20231;-52
2021/12/29 05:13:08;;;;;;;5.07;0.80;;;;;;;7.61;100.00;97984.63;5054704;28;20188;-53
2021/12/29 05:15:35;;;;;;;8.87;1.20;;;;;;;7.62;100.00;97994.06;5054693;28;20193;-57
2021/12/29 05:18:02;;;;;;;5.13;1.00;;;;;;;7.60;100.00;97980.41;5054655;28;20199;-56
2021/12/29 05:20:31;;;;;;;7.13;1.40;;;;;;;7.52;100.00;97994.94;5053882;28;20188;-57
2021/12/29 05:22:59;;;;;;;3.90;0.90;;;;;;;7.56;100.00;97989.47;5054310;28;20194;-56
2021/12/29 05:25:27;;;;;;;7.77;0.90;;;;;;;7.56;100.00;97998.09;5054408;28;20604;-56
2021/12/29 05:27:55;;;;;;;7.40;1.40;;;;;;;7.53;100.00;97985.38;5054469;28;20203;-55
2021/12/29 05:30:23;;;;;;;7.37;1.13;;;;;;;7.53;100.00;98008.75;5053692;28;20192;-56
2021/12/29 05:32:50;;;;;;;7.37;1.20;;;;;;;7.52;100.00;98026.13;5054390;28;20187;-59
2021/12/29 05:35:17;;;;;;;6.27;1.30;;;;;;;7.55;100.00;98001.66;5054384;28;20194;-53
2021/12/29 05:37:46;;;;;;;9.27;1.10;;;;;;;7.47;100.00;98024.94;5054135;28;20654;-54
2021/12/29 05:40:15;;;;;;;6.00;1.30;;;;;;;7.45;100.00;98027.66;5053716;28;20175;-57
2021/12/29 05:42:42;;;;;;;7.67;1.47;;;;;;;7.37;100.00;98030.19;5054200;28;20194;-57
2021/12/29 05:45:13;;;;;;;11.80;1.50;;;;;;;7.37;100.00;98012.81;5054076;28;20204;-56
2021/12/29 05:47:41;;;;;;;9.97;1.30;;;;;;;7.32;100.00;98012.44;5053284;28;20179;-58
2021/12/29 05:50:10;;;;;;;7.83;1.43;;;;;;;7.32;100.00;98019.41;5053297;28;20202;-59
2021/12/29 05:52:37;;;;;;;13.90;1.90;;;;;;;7.28;100.00;98005.09;5054150;28;20222;-53
2021/12/29 05:55:05;;;;;;;10.60;1.60;;;;;;;7.26;100.00;98023.41;5053995;28;20258;-58
2021/12/29 05:57:32;;;;;;;8.30;1.37;;;;;;;7.30;100.00;98016.16;5053990;28;20194;-56
2021/12/29 05:59:58;;;;;;;7.50;1.00;;;;;;;7.28;100.00;97995.50;5053406;28;20215;-57
2021/12/29 06:02:26;;;;;;;5.93;1.40;;;;;;;7.27;100.00;97999.06;5053835;28;20199;-55
2021/12/29 06:04:53;;;;;;;10.83;1.30;;;;;;;7.31;100.00;97991.81;5053654;28;20191;-55
2021/12/29 06:07:20;;;;;;;6.10;1.40;;;;;;;7.27;100.00;98000.88;5053724;28;20576;-58
2021/12/29 06:09:47;;;;;;;10.40;1.33;;;;;;;7.27;100.00;97996.47;5053038;28;20561;-58
2021/12/29 06:12:14;;;;;;;12.07;1.53;;;;;;;7.23;100.00;97987.34;5053634;28;20214;-54
2021/12/29 06:14:42;;;;;;;5.63;1.40;;;;;;;7.24;100.00;97992.41;5054002;28;20199;-59
2021/12/29 06:17:08;;;;;;;8.20;1.47;;;;;;;7.27;100.00;97991.28;5053479;28;20187;-58
2021/12/29 06:19:36;;;;;;;5.43;1.10;;;;;;;7.28;100.00;97994.72;5053068;28;20191;-60
2021/12/29 06:22:08;;;;;;;7.10;1.50;;;;;;;7.28;100.00;98005.91;5053343;28;20223;-57
2021/12/29 06:24:35;;;;;;;6.57;1.10;;;;;;;7.33;100.00;98000.28;5053434;28;20740;-56
2021/12/29 06:27:02;;;;;;;5.73;1.17;;;;;;;7.31;100.00;98005.59;5053389;28;20697;-56
2021/12/29 06:29:29;;;;;;;7.73;1.60;;;;;;;7.28;100.00;98005.09;5053268;28;20191;-59
2021/12/29 06:31:55;;;;;;;6.90;1.50;;;;;;;7.24;100.00;98007.97;5052607;28;20207;-59
2021/12/29 06:34:22;;;;;;;12.33;2.00;;;;;;;7.24;100.00;98015.78;5053240;28;20188;-55
2021/12/29 06:36:50;;;;;;;6.23;1.53;;;;;;;7.28;100.00;98021.47;5053205;28;20179;-57
2021/12/29 06:39:17;;;;;;;7.80;2.00;;;;;;;7.31;100.00;98018.59;5053339;28;20188;-55
2021/12/29 06:41:45;;;;;;;4.37;1.87;;;;;;;7.40;100.00;98009.13;5052442;28;20543;-59
2021/12/29 06:44:12;;;;;;;6.00;2.50;;;;;;;7.49;100.00;98021.22;5053067;28;20668;-58
2021/12/29 06:46:39;;;;;;;6.33;1.60;;;;;;;7.54;100.00;98024.19;5053027;28;20222;-57
2021/12/29 06:49:06;;;;;;;8.50;1.07;;;;;;;7.54;100.00;98029.38;5052994;28;20190;-56
2021/12/29 06:51:32;;;;;;;7.30;0.93;;;;;;;7.58;100.00;98040.31;5052175;28;20207;-56
2021/12/29 06:54:01;;;;;;;7.07;1.20;;;;;;;7.70;99.27;98043.50;5052901;28;20183;-56
2021/12/29 06:56:28;;;;;;;3.67;0.90;;;;;;;7.66;100.00;98032.59;5052885;28;20183;-56
2021/12/29 06:58:55;;;;;;;7.40;1.07;;;;;;;7.65;100.00;98040.53;5051606;28;20183;-56
2021/12/29 07:01:22;;;;;;;7.20;1.63;;;;;;;7.59;100.00;98062.72;5051989;28;20211;-59
2021/12/29 07:03:48;;;;;;;5.77;1.07;;;;;;;7.59;100.00;98056.69;5052783;28;20665;-57
2021/12/29 07:06:15;;;;;;;6.37;2.30;;;;;;;7.64;100.00;98075.25;5052639;28;20214;-56
2021/12/29 07:08:42;;;;;;;18.17;10.73;;;;;;;7.67;99.34;98059.38;5052570;28;20183;-58
2021/12/29 07:11:10;;;;;;;6.47;1.20;;;;;;;7.73;99.08;98064.00;5051910;28;20219;-57
2021/12/29 07:13:37;;;;;;;12.50;5.93;;;;;;;7.88;97.17;98058.31;5052420;28;20183;-57
2021/12/29 07:16:04;;;;;;;6.83;2.07;;;;;;;7.81;96.96;98056.28;5052480;28;20545;-56
2021/12/29 07:18:31;;;;;;;11.53;4.90;;;;;;;7.73;98.47;98058.81;5052633;28;20180;-54
2021/12/29 07:20:57;;;;;;;22.67;12.13;;;;;;;7.74;97.43;98062.22;5051650;28;20689;-57
2021/12/29 07:23:24;;;;;;;10.93;1.47;;;;;;;7.73;97.57;98055.41;5052775;28;20179;-59
2021/12/29 07:25:51;;;;;;;11.03;3.30;;;;;;;7.69;98.67;98062.66;5052179;28;20592;-57
2021/12/29 07:28:19;;;;;;;5.03;0.80;;;;;;;7.64;99.76;98070.06;5052337;28;20191;-57
2021/12/29 07:30:46;;;;;;;4.57;0.83;;;;;;;7.69;96.44;98073.03;5051597;28;20705;-58
2021/12/29 07:33:13;;;;;;;7.90;2.10;;;;;;;7.70;97.98;98082.47;5052119;28;20191;-56
2021/12/29 07:35:40;;;;;;;5.37;1.70;;;;;;;7.73;97.75;98084.78;5052078;28;20186;-58
2021/12/29 07:38:06;;;;;;;5.87;1.57;;;;;;;7.75;97.80;98088.06;5052166;28;20680;-58
2021/12/29 07:40:34;;;;;;;5.93;1.13;;;;;;;7.90;93.91;98083.19;5051291;28;20680;-54
2021/12/29 07:43:02;;;;;;;10.53;1.40;;;;;;;7.91;95.24;98086.59;5052253;28;20565;-58
2021/12/29 07:45:31;;;;;;;4.93;1.30;;;;;;;7.89;96.26;98088.50;5051964;28;20237;-56
2021/12/29 07:47:58;;;;;;;5.17;1.00;;;;;;;7.81;97.81;98099.66;5051962;28;20188;-55
2021/12/29 07:50:25;;;;;;;5.57;1.00;;;;;;;7.82;96.69;98104.69;5051174;28;20200;-57
2021/12/29 07:52:51;;;;;;;5.47;0.87;;;;;;;7.80;96.32;98105.81;5051890;28;20187;-59
2021/12/29 07:55:19;;;;;;;5.67;2.23;;;;;;;7.82;95.84;98106.50;5051857;28;20553;-56
2021/12/29 07:57:47;;;;;;;10.43;1.40;;;;;;;7.75;98.10;98108.84;5052011;28;20180;-57
2021/12/29 08:00:16;;;;;;;6.63;1.00;;;;;;;7.74;96.50;98117.59;5051431;28;20545;-56
2021/12/29 08:02:47;;;;;;;3.43;0.90;;;;;;;7.73;96.41;98125.53;5051738;28;20183;-57
2021/12/29 08:05:15;;;;;;;4.43;0.80;;;;;;;7.79;96.11;98115.38;5051982;28;20190;-59
2021/12/29 08:07:41;;;;;;;4.00;0.80;;;;;;;7.82;96.22;98117.69;5051571;28;20229;-58
2021/12/29 08:10:09;;;;;;;4.47;0.70;;;;;;;7.90;96.50;98109.19;5050866;28;20179;-57
2021/12/29 08:12:36;;;;;;;7.03;0.80;;;;;;;7.93;95.63;98119.28;5051686;28;20685;-55
2021/12/29 08:15:06;;;;;;;4.03;0.77;;;;;;;7.92;96.53;98127.22;5051634;28;20187;-57
2021/12/29 08:17:34;;;;;;;5.17;0.90;;;;;;;7.96;94.59;98125.94;5051698;28;20236;-59
2021/12/29 08:20:04;;;;;;;6.30;1.17;;;;;;;8.00;93.33;98129.06;5050906;28;20592;-57
2021/12/29 08:22:31;;;;;;;3.93;1.03;;;;;;;8.03;94.81;98114.00;5051932;28;20616;-57
2021/12/29 08:24:57;;;;;;;5.50;1.00;;;;;;;8.02;95.03;98112.38;5051632;28;20194;-54
2021/12/29 08:27:25;;;;;;;3.63;0.90;;;;;;;8.07;94.54;98109.31;5051587;28;20231;-56
2021/12/29 08:29:52;;;;;;;3.77;0.90;;;;;;;8.06;95.22;98108.50;5051282;28;20195;-59
2021/12/29 08:32:20;;;;;;;6.57;0.80;;;;;;;8.10;94.55;98109.84;5051403;28;20210;-57
2021/12/29 08:34:47;;;;;;;6.20;0.77;;;;;;;8.08;95.36;98108.34;5051420;28;20191;-57
2021/12/29 08:37:15;;;;;;;4.83;0.93;;;;;;;8.13;94.68;98101.75;5051506;28;20179;-57
2021/12/29 08:39:42;;;;;;;5.50;0.87;;;;;;;8.21;94.22;98103.59;5050904;28;20669;-57
2021/12/29 08:42:09;;;;;;;4.63;1.63;;;;;;;8.25;94.37;98098.94;5050848;28;20436;-56
2021/12/29 08:44:36;;;;;;;8.23;2.40;;;;;;;8.24;93.47;98115.50;5051433;28;20183;-56
2021/12/29 08:47:03;;;;;;;3.83;0.90;;;;;;;8.25;93.32;98107.53;5051193;28;20208;-58
2021/12/29 08:49:32;;;;;;;5.97;1.10;;;;;;;8.28;93.62;98104.66;5051269;28;20196;-55
2021/12/29 08:51:59;;;;;;;3.43;1.30;;;;;;;8.37;91.44;98121.16;5051009;28;20203;-57
2021/12/29 08:54:27;;;;;;;9.57;2.00;;;;;;;8.46;88.33;98105.63;5051317;28;20192;-57
2021/12/29 08:56:54;;;;;;;15.83;5.73;;;;;;;8.50;89.72;98102.59;5051228;28;20218;-59
2021/12/29 08:59:21;;;;;;;5.50;1.00;;;;;;;8.49;88.94;98115.72;5051215;28;20194;-57
2021/12/29 09:01:49;;;;;;;7.20;1.03;;;;;;;8.60;89.35;98112.09;5050413;28;20237;-58
2021/12/29 09:04:16;;;;;;;3.93;0.83;;;;;;;8.54;90.20;98118.69;5051190;28;20650;-57
2021/12/29 09:06:43;;;;;;;6.00;1.20;;;;;;;8.54;90.09;98124.72;5051214;28;20211;-58
2021/12/29 09:09:10;;;;;;;3.60;1.33;;;;;;;8.57;90.77;98128.81;5051506;28;20188;-57
2021/12/29 09:11:38;;;;;;;8.27;1.10;;;;;;;8.60;90.45;98125.91;5050522;28;20693;-57
2021/12/29 09:14:08;;;;;;;4.57;1.80;;;;;;;8.73;90.30;98122.09;5051289;28;20184;-57
2021/12/29 09:16:35;;;;;;;4.90;2.33;;;;;;;8.70;90.61;98128.44;5051264;28;20183;-59
2021/12/29 09:19:04;;;;;;;5.80;0.87;;;;;;;8.83;89.27;98133.22;5051046;28;20224;-57
2021/12/29 09:21:32;;;;;;;2.33;1.47;;;;;;;8.79;88.77;98124.09;5050374;28;20201;-57
2021/12/29 09:23:59;;;;;;;4.77;1.50;;;;;;;8.78;89.98;98123.28;5054455;28;20237;-56
2021/12/29 09:26:26;;;;;;;5.43;1.20;;;;;;;8.84;89.89;98124.47;5054551;28;20216;-59
2021/12/29 09:28:54;;;;;;;2.10;0.80;;;;;;;8.81;88.54;98123.00;5054524;28;20596;-59
2021/12/29 09:31:21;;;;;;;4.83;1.20;;;;;;;8.83;89.54;98128.03;5053802;28;20223;-57
2021/12/29 09:33:48;;;;;;;6.80;1.30;;;;;;;8.77;89.98;98129.47;5054449;28;20192;-59
2021/12/29 09:36:15;;;;;;;5.80;1.20;;;;;;;8.77;89.60;98126.88;5054388;28;20541;-57
2021/12/29 09:38:42;;;;;;;3.23;1.00;;;;;;;8.85;87.65;98137.34;5054352;28;20242;-58
2021/12/29 09:41:13;;;;;;;4.80;1.30;;;;;;;8.83;87.59;98130.63;5053636;28;20225;-55
2021/12/29 09:43:40;;;;;;;4.50;1.43;;;;;;;8.79;88.19;98131.91;5054302;28;20191;-59
2021/12/29 09:46:09;;;;;;;4.80;1.00;;;;;;;8.75;89.34;98146.19;5054098;28;20185;-58
2021/12/29 09:48:36;;;;;;;7.70;1.30;;;;;;;8.82;86.62;98148.03;5054204;28;20590;-56
2021/12/29 09:51:05;;;;;;;7.50;1.17;;;;;;;8.79;88.44;98160.53;5053677;28;20213;-56
2021/12/29 09:53:32;;;;;;;6.33;0.83;;;;;;;8.78;87.68;98158.91;5054148;28;20183;-56
2021/12/29 09:55:59;;;;;;;5.23;1.20;;;;;;;8.79;87.85;98163.97;5054010;28;20227;-57
2021/12/29 09:58:26;;;;;;;7.43;1.30;;;;;;;8.80;88.49;98172.56;5054007;28;20262;-58
2021/12/29 10:00:57;;;;;;;8.17;1.63;;;;;;;8.83;88.67;98172.28;5053459;28;20298;-57
2021/12/29 10:03:28;;;;;;;7.47;1.20;;;;;;;8.81;88.68;98162.03;5054289;28;20187;-57
2021/12/29 10:05:59;;;;;;;6.73;1.20;;;;;;;8.82;88.13;98173.25;5053893;28;20188;-59
2021/12/29 10:08:29;;;;;;;6.67;1.53;;;;;;;8.82;88.12;98175.84;5053738;28;20413;-56
2021/12/29 10:10:59;;;;;;;7.60;1.50;;;;;;;8.82;88.67;98178.44;5052756;28;20254;-56
2021/12/29 10:13:29;;;;;;;10.40;1.40;;;;;;;8.89;87.53;98171.66;5053669;28;20302;-57
2021/12/29 10:16:01;;;;;;;5.30;1.33;;;;;;;8.89;87.51;98152.66;5053589;28;20668;-58
2021/12/29 10:18:32;;;;;;;7.07;1.93;;;;;;;8.89;88.61;98157.84;5053721;28;20191;-59
2021/12/29 10:21:01;;;;;;;7.30;1.53;;;;;;;8.83;88.92;98151.44;5052833;28;20709;-56
2021/12/29 10:23:29;;;;;;;9.70;1.67;;;;;;;8.93;88.82;98149.56;5053262;28;20192;-57
2021/12/29 10:26:00;;;;;;;9.17;1.33;;;;;;;8.91;88.46;98135.91;5053450;28;20188;-56
2021/12/29 10:28:30;;;;;;;7.83;1.50;;;;;;;8.95;88.60;98137.22;5053448;28;20213;-57
2021/12/29 10:31:04;;;;;;;7.57;1.20;;;;;;;8.86;88.22;98141.56;5052633;28;20689;-55
2021/12/29 10:33:35;;;;;;;12.53;1.37;;;;;;;8.89;88.74;98145.66;5053034;28;20187;-55
2021/12/29 10:36:17;;;;;;;9.67;1.30;;;;;;;8.83;89.26;98148.84;5052011;28;20196;-57
2021/12/29 10:38:46;;;;;;;8.57;1.37;;;;;;;8.84;88.19;98138.31;5053315;28;20530;-56
2021/12/29 10:41:13;;;;;;;8.13;1.10;;;;;;;8.79;89.39;98135.34;5052480;28;20215;-56
2021/12/29 10:43:42;;;;;;;10.03;2.07;;;;;;;8.82;88.37;98127.22;5053413;28;20199;-55
2021/12/29 10:46:19;;;;;;;7.53;1.40;;;;;;;8.92;88.18;98129.72;5052826;28;20195;-54
2021/12/29 10:48:49;;;;;;;12.97;1.87;;;;;;;8.92;88.30;98127.13;5053156;28;20191;-56
2021/12/29 10:51:17;;;;;;;8.30;1.27;;;;;;;8.93;87.41;98126.16;5052320;28;20212;-55
2021/12/29 10:53:44;;;;;;;9.83;1.37;;;;;;;8.87;88.85;98126.75;5053293;28;20191;-56
2021/12/29 10:56:23;;;;;;;9.53;2.00;;;;;;;8.91;87.44;98125.50;5052793;28;20195;-54
2021/12/29 10:58:53;;;;;;;10.20;2.13;;;;;;;8.90;89.78;98118.66;5052733;28;20274;-58
2021/12/29 11:01:23;;;;;;;5.23;1.67;;;;;;;8.81;89.88;98109.97;5051922;28;20237;-56
2021/12/29 11:03:55;;;;;;;8.83;1.73;;;;;;;8.86;89.41;98102.53;5052722;28;20196;-57
2021/12/29 11:06:24;;;;;;;12.50;2.00;;;;;;;8.90;89.52;98108.22;5052589;28;20188;-59
2021/12/29 11:08:53;;;;;;;9.80;1.80;;;;;;;9.04;86.83;98104.25;5052476;28;20198;-57
2021/12/29 11:11:25;;;;;;;10.10;1.70;;;;;;;9.10;86.84;98101.03;5051710;28;20211;-58
2021/12/29 11:13:53;;;;;;;10.23;2.60;;;;;;;9.16;86.90;98102.22;5052629;28;20192;-56
2021/12/29 11:16:21;;;;;;;33.30;4.70;;;;;;;9.08;89.17;98100.38;5052370;28;20185;-58
2021/12/29 11:18:50;;;;;;;8.87;2.33;;;;;;;9.05;89.17;98107.69;5052397;28;20181;-55
2021/12/29 11:21:24;;;;;;;12.53;1.80;;;;;;;8.98;88.58;98105.69;5051782;28;20295;-56
2021/12/29 11:23:54;;;;;;;6.33;1.50;;;;;;;9.13;87.40;98112.94;5052394;28;20196;-55
2021/12/29 11:26:29;;;;;;;7.67;2.37;;;;;;;9.22;87.26;98117.22;5052475;28;20376;-56
2021/12/29 11:29:04;;;;;;;12.97;2.73;;;;;;;9.11;88.66;98118.28;5052225;28;20183;-53
2021/12/29 11:31:35;;;;;;;10.23;3.10;;;;;;;9.12;88.49;98112.09;5051803;28;20561;-55
2021/12/29 11:34:13;;;;;;;9.67;2.63;;;;;;;9.06;88.86;98112.72;5052039;28;20211;-56
2021/12/29 11:36:42;;;;;;;8.90;1.90;;;;;;;9.09;88.71;98112.41;5052203;28;20190;-57
2021/12/29 11:39:09;;;;;;;8.03;1.97;;;;;;;9.15;88.79;98103.19;5052137;28;20187;-55
2021/12/29 11:41:36;;;;;;;5.93;1.97;;;;;;;9.15;88.37;98108.38;5051392;28;20205;-57
2021/12/29 11:44:03;;;;;;;8.17;1.60;;;;;;;9.06;88.55;98106.72;5052036;28;20188;-54
2021/12/29 11:46:31;;;;;;;8.67;1.40;;;;;;;9.13;87.27;98105.91;5051393;28;20188;-55
2021/12/29 11:49:02;;;;;;;5.70;1.70;;;;;;;9.19;86.98;98106.28;5051883;28;20218;-56